sensor_id;sensor_type;location;lat;lon;timestamp;temperature;humidity
10644;DHT22;5370;50.132;8.626;2022-12-29T00:02:14;11.40;76.40
10644;DHT22;5370;50.132;8.626;2022-12-29T00:04:40;11.50;76.50
10644;DHT22;5370;50.132;8.626;2022-12-29T00:07:05;11.50;76.60
10644;DHT22;5370;50.132;8.626;2022-12-29T00:09:32;11.50;76.60
10644;DHT22;5370;50.132;8.626;2022-12-29T00:11:58;11.50;76.60
10644;DHT22;5370;50.132;8.626;2022-12-29T00:14:24;11.50;76.70
10644;DHT22;5370;50.132;8.626;2022-12-29T00:17:08;11.50;76.70
10644;DHT22;5370;50.132;8.626;2022-12-29T00:19:34;11.60;76.80
10644;DHT22;5370;50.132;8.626;2022-12-29T00:22:18;11.60;77.00
10644;DHT22;5370;50.132;8.626;2022-12-29T00:25:03;11.60;77.10
10644;DHT22;5370;50.132;8.626;2022-12-29T00:27:47;11.60;77.40
10644;DHT22;5370;50.132;8.626;2022-12-29T00:30:31;11.60;77.60
10644;DHT22;5370;50.132;8.626;2022-12-29T00:33:20;11.60;77.90
10644;DHT22;5370;50.132;8.626;2022-12-29T00:36:12;11.60;78.20
10644;DHT22;5370;50.132;8.626;2022-12-29T00:38:41;11.60;78.50
10644;DHT22;5370;50.132;8.626;2022-12-29T00:41:26;11.60;78.70
10644;DHT22;5370;50.132;8.626;2022-12-29T00:44:11;11.60;78.90
10644;DHT22;5370;50.132;8.626;2022-12-29T00:46:39;11.60;79.10
10644;DHT22;5370;50.132;8.626;2022-12-29T00:49:05;11.60;79.30
10644;DHT22;5370;50.132;8.626;2022-12-29T00:51:50;11.70;79.50
10644;DHT22;5370;50.132;8.626;2022-12-29T00:54:16;11.70;79.70
10644;DHT22;5370;50.132;8.626;2022-12-29T00:56:42;11.70;80.00
10644;DHT22;5370;50.132;8.626;2022-12-29T00:59:09;11.80;80.20
10644;DHT22;5370;50.132;8.626;2022-12-29T01:01:36;11.80;80.50
10644;DHT22;5370;50.132;8.626;2022-12-29T01:04:02;11.80;80.50
10644;DHT22;5370;50.132;8.626;2022-12-29T01:06:28;11.90;80.80
10644;DHT22;5370;50.132;8.626;2022-12-29T01:08:53;11.90;80.80
10644;DHT22;5370;50.132;8.626;2022-12-29T01:11:39;11.90;80.80
10644;DHT22;5370;50.132;8.626;2022-12-29T01:14:06;11.90;80.90
10644;DHT22;5370;50.132;8.626;2022-12-29T01:16:31;12.00;81.00
10644;DHT22;5370;50.132;8.626;2022-12-29T01:18:57;12.00;81.00
10644;DHT22;5370;50.132;8.626;2022-12-29T01:21:23;12.00;81.10
10644;DHT22;5370;50.132;8.626;2022-12-29T01:23:49;12.10;81.30
10644;DHT22;5370;50.132;8.626;2022-12-29T01:26:16;12.00;81.30
10644;DHT22;5370;50.132;8.626;2022-12-29T01:28:42;12.10;81.40
10644;DHT22;5370;50.132;8.626;2022-12-29T01:31:10;12.10;81.50
10644;DHT22;5370;50.132;8.626;2022-12-29T01:33:36;12.10;81.50
10644;DHT22;5370;50.132;8.626;2022-12-29T01:36:03;12.10;81.50
10644;DHT22;5370;50.132;8.626;2022-12-29T01:38:28;12.10;81.70
10644;DHT22;5370;50.132;8.626;2022-12-29T01:40:54;12.10;81.70
10644;DHT22;5370;50.132;8.626;2022-12-29T01:43:20;12.10;81.80
10644;DHT22;5370;50.132;8.626;2022-12-29T01:45:50;12.10;81.80
10644;DHT22;5370;50.132;8.626;2022-12-29T01:48:18;12.10;81.90
10644;DHT22;5370;50.132;8.626;2022-12-29T01:50:50;12.10;82.00
10644;DHT22;5370;50.132;8.626;2022-12-29T01:53:18;12.10;82.10
10644;DHT22;5370;50.132;8.626;2022-12-29T01:55:49;12.10;82.20
10644;DHT22;5370;50.132;8.626;2022-12-29T01:58:17;12.10;82.40
10644;DHT22;5370;50.132;8.626;2022-12-29T02:00:43;12.10;82.60
10644;DHT22;5370;50.132;8.626;2022-12-29T02:03:09;12.10;82.70
10644;DHT22;5370;50.132;8.626;2022-12-29T02:08:17;12.10;83.00
10644;DHT22;5370;50.132;8.626;2022-12-29T02:10:44;12.10;83.10
10644;DHT22;5370;50.132;8.626;2022-12-29T02:13:10;12.10;83.20
10644;DHT22;5370;50.132;8.626;2022-12-29T02:22:01;12.10;83.60
10644;DHT22;5370;50.132;8.626;2022-12-29T02:35:21;12.00;84.30
10644;DHT22;5370;50.132;8.626;2022-12-29T02:46:35;11.90;84.80
10644;DHT22;5370;50.132;8.626;2022-12-29T02:49:11;11.90;84.90
10644;DHT22;5370;50.132;8.626;2022-12-29T02:51:57;11.80;84.90
10644;DHT22;5370;50.132;8.626;2022-12-29T02:54:24;11.70;84.90
10644;DHT22;5370;50.132;8.626;2022-12-29T02:59:43;11.60;85.70
10644;DHT22;5370;50.132;8.626;2022-12-29T03:02:35;11.60;86.10
10644;DHT22;5370;50.132;8.626;2022-12-29T03:08:04;11.60;86.90
10644;DHT22;5370;50.132;8.626;2022-12-29T03:10:59;11.70;87.30
10644;DHT22;5370;50.132;8.626;2022-12-29T03:13:43;11.70;87.30
10644;DHT22;5370;50.132;8.626;2022-12-29T03:16:49;11.80;87.50
10644;DHT22;5370;50.132;8.626;2022-12-29T03:19:41;11.80;87.60
10644;DHT22;5370;50.132;8.626;2022-12-29T03:22:15;11.90;87.70
10644;DHT22;5370;50.132;8.626;2022-12-29T03:25:03;11.90;87.60
10644;DHT22;5370;50.132;8.626;2022-12-29T03:27:33;11.90;87.50
10644;DHT22;5370;50.132;8.626;2022-12-29T03:30:04;12.00;87.40
10644;DHT22;5370;50.132;8.626;2022-12-29T03:32:38;12.00;87.30
10644;DHT22;5370;50.132;8.626;2022-12-29T03:35:08;12.00;87.10
10644;DHT22;5370;50.132;8.626;2022-12-29T03:37:38;12.00;87.00
10644;DHT22;5370;50.132;8.626;2022-12-29T03:40:05;12.00;86.90
10644;DHT22;5370;50.132;8.626;2022-12-29T03:42:33;12.00;87.00
10644;DHT22;5370;50.132;8.626;2022-12-29T03:44:59;12.00;87.00
10644;DHT22;5370;50.132;8.626;2022-12-29T03:47:25;12.00;87.10
10644;DHT22;5370;50.132;8.626;2022-12-29T03:49:51;12.00;87.20
10644;DHT22;5370;50.132;8.626;2022-12-29T03:52:17;12.00;87.20
10644;DHT22;5370;50.132;8.626;2022-12-29T03:54:44;12.10;87.20
10644;DHT22;5370;50.132;8.626;2022-12-29T03:57:10;12.10;87.00
10644;DHT22;5370;50.132;8.626;2022-12-29T03:59:36;12.10;86.90
10644;DHT22;5370;50.132;8.626;2022-12-29T04:02:01;12.20;86.70
10644;DHT22;5370;50.132;8.626;2022-12-29T04:04:27;12.20;86.50
10644;DHT22;5370;50.132;8.626;2022-12-29T04:06:53;12.20;86.30
10644;DHT22;5370;50.132;8.626;2022-12-29T04:09:18;12.30;86.20
10644;DHT22;5370;50.132;8.626;2022-12-29T04:11:44;12.30;85.90
10644;DHT22;5370;50.132;8.626;2022-12-29T04:14:09;12.30;85.70
10644;DHT22;5370;50.132;8.626;2022-12-29T04:16:35;12.30;85.30
10644;DHT22;5370;50.132;8.626;2022-12-29T04:19:01;12.30;85.00
10644;DHT22;5370;50.132;8.626;2022-12-29T04:21:27;12.30;84.70
10644;DHT22;5370;50.132;8.626;2022-12-29T04:23:53;12.30;84.60
10644;DHT22;5370;50.132;8.626;2022-12-29T04:26:18;12.30;84.40
10644;DHT22;5370;50.132;8.626;2022-12-29T04:28:44;12.40;84.20
10644;DHT22;5370;50.132;8.626;2022-12-29T04:31:10;12.40;84.10
10644;DHT22;5370;50.132;8.626;2022-12-29T04:33:35;12.40;83.70
10644;DHT22;5370;50.132;8.626;2022-12-29T04:36:01;12.50;83.60
10644;DHT22;5370;50.132;8.626;2022-12-29T04:38:27;12.50;83.30
10644;DHT22;5370;50.132;8.626;2022-12-29T04:40:52;12.50;83.00
10644;DHT22;5370;50.132;8.626;2022-12-29T04:43:18;12.60;82.60
10644;DHT22;5370;50.132;8.626;2022-12-29T04:45:45;12.60;82.20
10644;DHT22;5370;50.132;8.626;2022-12-29T04:48:12;12.60;81.80
10644;DHT22;5370;50.132;8.626;2022-12-29T04:50:39;12.70;81.70
10644;DHT22;5370;50.132;8.626;2022-12-29T04:53:05;12.70;81.20
10644;DHT22;5370;50.132;8.626;2022-12-29T04:55:30;12.70;80.90
10644;DHT22;5370;50.132;8.626;2022-12-29T04:57:56;12.70;80.50
10644;DHT22;5370;50.132;8.626;2022-12-29T05:00:22;12.80;80.20
10644;DHT22;5370;50.132;8.626;2022-12-29T05:02:47;12.80;80.00
10644;DHT22;5370;50.132;8.626;2022-12-29T05:05:13;12.80;79.70
10644;DHT22;5370;50.132;8.626;2022-12-29T05:07:39;12.80;79.50
10644;DHT22;5370;50.132;8.626;2022-12-29T05:10:06;12.80;79.20
10644;DHT22;5370;50.132;8.626;2022-12-29T05:12:33;12.90;79.10
10644;DHT22;5370;50.132;8.626;2022-12-29T05:14:59;12.90;79.20
10644;DHT22;5370;50.132;8.626;2022-12-29T05:17:25;12.90;79.20
10644;DHT22;5370;50.132;8.626;2022-12-29T05:19:50;12.90;79.40
10644;DHT22;5370;50.132;8.626;2022-12-29T05:22:16;12.90;79.50
10644;DHT22;5370;50.132;8.626;2022-12-29T05:24:41;12.80;79.50
10644;DHT22;5370;50.132;8.626;2022-12-29T05:27:07;12.80;79.70
10644;DHT22;5370;50.132;8.626;2022-12-29T05:29:33;12.80;79.70
10644;DHT22;5370;50.132;8.626;2022-12-29T05:31:58;12.80;79.80
10644;DHT22;5370;50.132;8.626;2022-12-29T05:34:24;12.80;80.00
10644;DHT22;5370;50.132;8.626;2022-12-29T05:36:49;12.80;80.20
10644;DHT22;5370;50.132;8.626;2022-12-29T05:39:15;12.70;80.50
10644;DHT22;5370;50.132;8.626;2022-12-29T05:41:40;12.80;80.80
10644;DHT22;5370;50.132;8.626;2022-12-29T05:44:06;12.70;80.80
10644;DHT22;5370;50.132;8.626;2022-12-29T05:46:32;12.70;80.90
10644;DHT22;5370;50.132;8.626;2022-12-29T05:48:57;12.70;80.90
10644;DHT22;5370;50.132;8.626;2022-12-29T05:51:23;12.70;80.80
10644;DHT22;5370;50.132;8.626;2022-12-29T05:53:49;12.70;80.80
10644;DHT22;5370;50.132;8.626;2022-12-29T05:56:15;12.70;80.60
10644;DHT22;5370;50.132;8.626;2022-12-29T05:58:41;12.70;80.50
10644;DHT22;5370;50.132;8.626;2022-12-29T06:01:06;12.70;80.30
10644;DHT22;5370;50.132;8.626;2022-12-29T06:03:32;12.70;80.00
10644;DHT22;5370;50.132;8.626;2022-12-29T06:05:57;12.80;79.90
10644;DHT22;5370;50.132;8.626;2022-12-29T06:08:23;12.80;79.70
10644;DHT22;5370;50.132;8.626;2022-12-29T06:10:49;12.80;79.50
10644;DHT22;5370;50.132;8.626;2022-12-29T06:13:15;12.80;79.20
10644;DHT22;5370;50.132;8.626;2022-12-29T06:15:41;12.80;79.00
10644;DHT22;5370;50.132;8.626;2022-12-29T06:18:06;12.90;78.80
10644;DHT22;5370;50.132;8.626;2022-12-29T06:20:32;12.90;78.60
10644;DHT22;5370;50.132;8.626;2022-12-29T06:22:57;12.90;78.40
10644;DHT22;5370;50.132;8.626;2022-12-29T06:25:23;12.90;78.10
10644;DHT22;5370;50.132;8.626;2022-12-29T06:27:49;12.90;77.80
10644;DHT22;5370;50.132;8.626;2022-12-29T06:30:14;13.00;77.80
10644;DHT22;5370;50.132;8.626;2022-12-29T06:32:40;13.00;77.50
10644;DHT22;5370;50.132;8.626;2022-12-29T06:35:06;13.00;77.30
10644;DHT22;5370;50.132;8.626;2022-12-29T06:37:32;13.00;77.20
10644;DHT22;5370;50.132;8.626;2022-12-29T06:39:57;13.00;77.00
10644;DHT22;5370;50.132;8.626;2022-12-29T06:42:23;13.10;77.10
10644;DHT22;5370;50.132;8.626;2022-12-29T06:44:49;13.10;77.00
10644;DHT22;5370;50.132;8.626;2022-12-29T06:47:15;13.10;76.90
10644;DHT22;5370;50.132;8.626;2022-12-29T06:49:40;13.10;76.60
10644;DHT22;5370;50.132;8.626;2022-12-29T06:52:06;13.10;76.60
10644;DHT22;5370;50.132;8.626;2022-12-29T06:54:31;13.10;76.50
10644;DHT22;5370;50.132;8.626;2022-12-29T06:56:57;13.10;76.60
10644;DHT22;5370;50.132;8.626;2022-12-29T06:59:23;13.10;76.80
10644;DHT22;5370;50.132;8.626;2022-12-29T07:01:50;13.10;77.10
10644;DHT22;5370;50.132;8.626;2022-12-29T07:04:15;13.10;77.60
10644;DHT22;5370;50.132;8.626;2022-12-29T07:06:41;13.00;78.00
10644;DHT22;5370;50.132;8.626;2022-12-29T07:09:08;12.90;78.20
10644;DHT22;5370;50.132;8.626;2022-12-29T07:11:34;12.90;78.60
10644;DHT22;5370;50.132;8.626;2022-12-29T07:13:59;12.90;79.00
10644;DHT22;5370;50.132;8.626;2022-12-29T07:16:25;12.80;79.10
10644;DHT22;5370;50.132;8.626;2022-12-29T07:18:51;12.80;79.30
10644;DHT22;5370;50.132;8.626;2022-12-29T07:21:18;12.80;79.50
10644;DHT22;5370;50.132;8.626;2022-12-29T07:23:43;12.80;79.50
10644;DHT22;5370;50.132;8.626;2022-12-29T07:26:12;12.80;79.60
10644;DHT22;5370;50.132;8.626;2022-12-29T07:28:38;12.70;79.30
10644;DHT22;5370;50.132;8.626;2022-12-29T07:31:05;12.70;79.30
10644;DHT22;5370;50.132;8.626;2022-12-29T07:33:32;12.70;79.30
10644;DHT22;5370;50.132;8.626;2022-12-29T07:35:58;12.70;79.10
10644;DHT22;5370;50.132;8.626;2022-12-29T07:38:24;12.70;79.00
10644;DHT22;5370;50.132;8.626;2022-12-29T07:40:49;12.70;78.90
10644;DHT22;5370;50.132;8.626;2022-12-29T07:43:15;12.70;78.80
10644;DHT22;5370;50.132;8.626;2022-12-29T07:45:40;12.70;78.70
10644;DHT22;5370;50.132;8.626;2022-12-29T07:48:06;12.80;78.70
10644;DHT22;5370;50.132;8.626;2022-12-29T07:50:35;12.80;78.60
10644;DHT22;5370;50.132;8.626;2022-12-29T07:53:01;12.80;78.40
10644;DHT22;5370;50.132;8.626;2022-12-29T07:55:27;12.80;78.20
10644;DHT22;5370;50.132;8.626;2022-12-29T07:57:53;12.80;78.00
10644;DHT22;5370;50.132;8.626;2022-12-29T08:00:19;12.90;77.90
10644;DHT22;5370;50.132;8.626;2022-12-29T08:02:45;12.90;77.60
10644;DHT22;5370;50.132;8.626;2022-12-29T08:05:10;12.90;77.50
10644;DHT22;5370;50.132;8.626;2022-12-29T08:07:36;12.90;77.50
10644;DHT22;5370;50.132;8.626;2022-12-29T08:10:02;13.00;77.30
10644;DHT22;5370;50.132;8.626;2022-12-29T08:12:27;13.00;77.10
10644;DHT22;5370;50.132;8.626;2022-12-29T08:14:53;13.00;77.00
10644;DHT22;5370;50.132;8.626;2022-12-29T08:17:18;13.00;76.80
10644;DHT22;5370;50.132;8.626;2022-12-29T08:19:44;13.10;76.80
10644;DHT22;5370;50.132;8.626;2022-12-29T08:22:09;13.10;76.80
10644;DHT22;5370;50.132;8.626;2022-12-29T08:24:35;13.10;76.80
10644;DHT22;5370;50.132;8.626;2022-12-29T08:27:01;13.10;76.70
10644;DHT22;5370;50.132;8.626;2022-12-29T08:29:27;13.10;76.70
10644;DHT22;5370;50.132;8.626;2022-12-29T08:31:52;13.10;76.80
10644;DHT22;5370;50.132;8.626;2022-12-29T08:34:18;13.10;76.90
10644;DHT22;5370;50.132;8.626;2022-12-29T08:36:43;13.10;76.90
10644;DHT22;5370;50.132;8.626;2022-12-29T08:39:09;13.10;77.00
10644;DHT22;5370;50.132;8.626;2022-12-29T08:41:34;13.10;77.10
10644;DHT22;5370;50.132;8.626;2022-12-29T08:44:00;13.10;77.20
10644;DHT22;5370;50.132;8.626;2022-12-29T08:46:26;13.10;77.30
10644;DHT22;5370;50.132;8.626;2022-12-29T08:48:53;13.10;77.40
10644;DHT22;5370;50.132;8.626;2022-12-29T08:51:18;13.10;77.50
10644;DHT22;5370;50.132;8.626;2022-12-29T08:53:44;13.10;77.60
10644;DHT22;5370;50.132;8.626;2022-12-29T08:56:10;13.10;77.60
10644;DHT22;5370;50.132;8.626;2022-12-29T08:58:37;13.10;77.60
10644;DHT22;5370;50.132;8.626;2022-12-29T09:01:02;13.10;77.80
10644;DHT22;5370;50.132;8.626;2022-12-29T09:03:28;13.10;78.10
10644;DHT22;5370;50.132;8.626;2022-12-29T09:05:54;13.20;78.50
10644;DHT22;5370;50.132;8.626;2022-12-29T09:08:20;13.10;78.80
10644;DHT22;5370;50.132;8.626;2022-12-29T09:10:46;13.10;79.30
10644;DHT22;5370;50.132;8.626;2022-12-29T09:13:12;13.10;79.80
10644;DHT22;5370;50.132;8.626;2022-12-29T09:15:38;13.10;80.20
10644;DHT22;5370;50.132;8.626;2022-12-29T09:18:05;13.00;80.50
10644;DHT22;5370;50.132;8.626;2022-12-29T09:20:31;13.00;81.00
10644;DHT22;5370;50.132;8.626;2022-12-29T09:22:56;13.00;81.50
10644;DHT22;5370;50.132;8.626;2022-12-29T09:25:22;13.00;82.10
10644;DHT22;5370;50.132;8.626;2022-12-29T09:27:50;13.00;82.50
10644;DHT22;5370;50.132;8.626;2022-12-29T09:30:17;13.00;82.70
10644;DHT22;5370;50.132;8.626;2022-12-29T09:32:43;13.00;83.00
10644;DHT22;5370;50.132;8.626;2022-12-29T09:35:09;13.00;83.00
10644;DHT22;5370;50.132;8.626;2022-12-29T09:37:34;13.00;83.10
10644;DHT22;5370;50.132;8.626;2022-12-29T09:40:00;13.00;83.10
10644;DHT22;5370;50.132;8.626;2022-12-29T09:42:35;13.00;83.20
10644;DHT22;5370;50.132;8.626;2022-12-29T09:45:12;13.00;83.40
10644;DHT22;5370;50.132;8.626;2022-12-29T09:47:40;13.00;83.70
10644;DHT22;5370;50.132;8.626;2022-12-29T09:50:39;13.00;84.10
10644;DHT22;5370;50.132;8.626;2022-12-29T09:53:09;13.00;84.70
10644;DHT22;5370;50.132;8.626;2022-12-29T09:55:58;12.90;85.00
10644;DHT22;5370;50.132;8.626;2022-12-29T10:01:36;12.90;85.90
10644;DHT22;5370;50.132;8.626;2022-12-29T10:04:03;12.90;86.10
10644;DHT22;5370;50.132;8.626;2022-12-29T10:12:56;13.10;86.70
10644;DHT22;5370;50.132;8.626;2022-12-29T10:15:38;13.10;86.70
10644;DHT22;5370;50.132;8.626;2022-12-29T10:18:28;13.00;86.20
10644;DHT22;5370;50.132;8.626;2022-12-29T10:21:19;13.00;86.10
10644;DHT22;5370;50.132;8.626;2022-12-29T10:23:51;12.90;86.10
10644;DHT22;5370;50.132;8.626;2022-12-29T10:26:20;12.90;86.10
10644;DHT22;5370;50.132;8.626;2022-12-29T10:28:56;12.80;86.10
10644;DHT22;5370;50.132;8.626;2022-12-29T10:31:26;12.80;86.30
10644;DHT22;5370;50.132;8.626;2022-12-29T10:34:00;12.70;86.20
10644;DHT22;5370;50.132;8.626;2022-12-29T10:36:41;12.70;86.30
10644;DHT22;5370;50.132;8.626;2022-12-29T10:39:23;12.60;86.20
10644;DHT22;5370;50.132;8.626;2022-12-29T10:44:38;12.70;86.30
10644;DHT22;5370;50.132;8.626;2022-12-29T10:47:15;12.70;86.00
10644;DHT22;5370;50.132;8.626;2022-12-29T10:49:42;12.70;86.00
10644;DHT22;5370;50.132;8.626;2022-12-29T10:52:12;12.80;85.70
10644;DHT22;5370;50.132;8.626;2022-12-29T10:54:58;12.80;85.40
10644;DHT22;5370;50.132;8.626;2022-12-29T10:57:34;12.90;85.00
10644;DHT22;5370;50.132;8.626;2022-12-29T11:00:05;12.90;84.70
10644;DHT22;5370;50.132;8.626;2022-12-29T11:02:45;12.90;84.30
10644;DHT22;5370;50.132;8.626;2022-12-29T11:07:57;13.10;83.90
10644;DHT22;5370;50.132;8.626;2022-12-29T11:10:37;13.20;83.80
10644;DHT22;5370;50.132;8.626;2022-12-29T11:13:18;13.30;83.30
10644;DHT22;5370;50.132;8.626;2022-12-29T11:15:46;13.30;83.30
10644;DHT22;5370;50.132;8.626;2022-12-29T11:18:36;13.40;82.90
10644;DHT22;5370;50.132;8.626;2022-12-29T11:21:30;13.50;82.50
10644;DHT22;5370;50.132;8.626;2022-12-29T11:23:58;13.60;82.10
10644;DHT22;5370;50.132;8.626;2022-12-29T11:26:25;13.70;81.90
10644;DHT22;5370;50.132;8.626;2022-12-29T11:32:21;13.90;81.30
10644;DHT22;5370;50.132;8.626;2022-12-29T11:34:47;14.10;80.40
10644;DHT22;5370;50.132;8.626;2022-12-29T11:37:17;14.20;79.60
10644;DHT22;5370;50.132;8.626;2022-12-29T11:40:05;14.20;78.90
10644;DHT22;5370;50.132;8.626;2022-12-29T11:42:39;14.30;78.00
10644;DHT22;5370;50.132;8.626;2022-12-29T11:45:29;14.30;77.40
10644;DHT22;5370;50.132;8.626;2022-12-29T11:47:57;14.40;76.40
10644;DHT22;5370;50.132;8.626;2022-12-29T11:50:26;14.40;76.70
10644;DHT22;5370;50.132;8.626;2022-12-29T11:52:59;14.40;75.70
10644;DHT22;5370;50.132;8.626;2022-12-29T11:55:26;14.40;75.40
10644;DHT22;5370;50.132;8.626;2022-12-29T11:57:54;14.40;74.70
10644;DHT22;5370;50.132;8.626;2022-12-29T12:00:24;14.40;74.30
10644;DHT22;5370;50.132;8.626;2022-12-29T12:08:16;14.30;73.50
10644;DHT22;5370;50.132;8.626;2022-12-29T12:16:39;14.40;73.30
10644;DHT22;5370;50.132;8.626;2022-12-29T12:19:23;14.50;72.50
10644;DHT22;5370;50.132;8.626;2022-12-29T12:21:59;14.60;72.40
10644;DHT22;5370;50.132;8.626;2022-12-29T12:24:52;14.70;72.10
10644;DHT22;5370;50.132;8.626;2022-12-29T12:27:28;14.80;71.90
10644;DHT22;5370;50.132;8.626;2022-12-29T12:35:42;14.70;69.40
10644;DHT22;5370;50.132;8.626;2022-12-29T12:40:59;14.60;68.90
10644;DHT22;5370;50.132;8.626;2022-12-29T12:43:44;14.50;68.80
10644;DHT22;5370;50.132;8.626;2022-12-29T13:02:43;14.20;69.50
10644;DHT22;5370;50.132;8.626;2022-12-29T13:05:29;14.10;70.00
10644;DHT22;5370;50.132;8.626;2022-12-29T13:13:40;13.70;71.60
10644;DHT22;5370;50.132;8.626;2022-12-29T13:22:13;13.50;73.30
10644;DHT22;5370;50.132;8.626;2022-12-29T13:25:10;13.50;73.80
10644;DHT22;5370;50.132;8.626;2022-12-29T13:31:12;13.60;74.20
10644;DHT22;5370;50.132;8.626;2022-12-29T13:36:44;13.90;73.90
10644;DHT22;5370;50.132;8.626;2022-12-29T13:39:11;14.10;73.60
10644;DHT22;5370;50.132;8.626;2022-12-29T13:41:46;14.10;72.80
10644;DHT22;5370;50.132;8.626;2022-12-29T13:44:28;14.20;72.10
10644;DHT22;5370;50.132;8.626;2022-12-29T13:46:58;14.20;71.40
10644;DHT22;5370;50.132;8.626;2022-12-29T13:49:26;14.10;70.90
10644;DHT22;5370;50.132;8.626;2022-12-29T13:52:39;14.00;70.50
10644;DHT22;5370;50.132;8.626;2022-12-29T13:54:51;13.90;70.30
10644;DHT22;5370;50.132;8.626;2022-12-29T13:57:39;13.90;70.40
10644;DHT22;5370;50.132;8.626;2022-12-29T14:00:19;13.90;70.50
10644;DHT22;5370;50.132;8.626;2022-12-29T14:07:46;13.90;69.70
10644;DHT22;5370;50.132;8.626;2022-12-29T14:10:45;13.90;69.60
10644;DHT22;5370;50.132;8.626;2022-12-29T14:13:22;13.90;69.40
10644;DHT22;5370;50.132;8.626;2022-12-29T14:15:56;13.90;69.20
10644;DHT22;5370;50.132;8.626;2022-12-29T14:18:28;13.80;68.90
10644;DHT22;5370;50.132;8.626;2022-12-29T14:20:58;13.80;68.80
10644;DHT22;5370;50.132;8.626;2022-12-29T14:39:36;13.10;69.80
10644;DHT22;5370;50.132;8.626;2022-12-29T14:42:23;13.10;70.20
10644;DHT22;5370;50.132;8.626;2022-12-29T14:45:27;13.00;70.50
10644;DHT22;5370;50.132;8.626;2022-12-29T14:47:54;12.90;70.60
10644;DHT22;5370;50.132;8.626;2022-12-29T14:50:42;12.90;70.60
10644;DHT22;5370;50.132;8.626;2022-12-29T14:53:43;12.90;70.60
10644;DHT22;5370;50.132;8.626;2022-12-29T14:56:10;12.90;70.40
10644;DHT22;5370;50.132;8.626;2022-12-29T14:59:08;12.90;70.50
10644;DHT22;5370;50.132;8.626;2022-12-29T15:01:43;13.00;70.60
10644;DHT22;5370;50.132;8.626;2022-12-29T15:04:22;13.20;70.80
10644;DHT22;5370;50.132;8.626;2022-12-29T15:06:49;13.40;70.50
10644;DHT22;5370;50.132;8.626;2022-12-29T15:09:28;13.40;69.50
10644;DHT22;5370;50.132;8.626;2022-12-29T15:12:01;13.50;68.80
10644;DHT22;5370;50.132;8.626;2022-12-29T15:14:34;13.40;68.60
10644;DHT22;5370;50.132;8.626;2022-12-29T15:17:00;13.40;68.30
10644;DHT22;5370;50.132;8.626;2022-12-29T15:19:27;13.40;68.20
10644;DHT22;5370;50.132;8.626;2022-12-29T15:21:54;13.30;68.40
10644;DHT22;5370;50.132;8.626;2022-12-29T15:24:20;13.20;68.00
10644;DHT22;5370;50.132;8.626;2022-12-29T15:26:48;13.10;67.80
10644;DHT22;5370;50.132;8.626;2022-12-29T15:29:39;12.90;67.60
10644;DHT22;5370;50.132;8.626;2022-12-29T15:32:22;12.70;67.50
10644;DHT22;5370;50.132;8.626;2022-12-29T15:34:51;12.50;67.40
10644;DHT22;5370;50.132;8.626;2022-12-29T15:37:24;12.40;67.50
10644;DHT22;5370;50.132;8.626;2022-12-29T15:39:51;12.30;67.70
10644;DHT22;5370;50.132;8.626;2022-12-29T15:45:30;12.00;68.20
10644;DHT22;5370;50.132;8.626;2022-12-29T15:47:58;11.90;68.10
10644;DHT22;5370;50.132;8.626;2022-12-29T15:50:29;11.90;68.30
10644;DHT22;5370;50.132;8.626;2022-12-29T15:52:56;11.80;68.30
10644;DHT22;5370;50.132;8.626;2022-12-29T15:55:32;11.70;68.30
10644;DHT22;5370;50.132;8.626;2022-12-29T15:58:00;11.70;68.40
10644;DHT22;5370;50.132;8.626;2022-12-29T16:00:31;11.70;68.50
10644;DHT22;5370;50.132;8.626;2022-12-29T16:03:00;11.60;68.50
10644;DHT22;5370;50.132;8.626;2022-12-29T16:05:38;11.60;68.60
10644;DHT22;5370;50.132;8.626;2022-12-29T16:08:34;11.60;68.60
10644;DHT22;5370;50.132;8.626;2022-12-29T16:11:05;11.60;68.60
10644;DHT22;5370;50.132;8.626;2022-12-29T16:13:34;11.50;68.60
10644;DHT22;5370;50.132;8.626;2022-12-29T16:16:16;11.50;68.70
10644;DHT22;5370;50.132;8.626;2022-12-29T16:18:44;11.50;69.00
10644;DHT22;5370;50.132;8.626;2022-12-29T16:21:28;11.50;69.20
10644;DHT22;5370;50.132;8.626;2022-12-29T16:24:00;11.50;69.40
10644;DHT22;5370;50.132;8.626;2022-12-29T16:26:27;11.40;69.40
10644;DHT22;5370;50.132;8.626;2022-12-29T16:28:57;11.40;69.70
10644;DHT22;5370;50.132;8.626;2022-12-29T16:31:35;11.30;69.80
10644;DHT22;5370;50.132;8.626;2022-12-29T16:34:19;11.30;70.00
10644;DHT22;5370;50.132;8.626;2022-12-29T16:36:56;11.30;70.30
10644;DHT22;5370;50.132;8.626;2022-12-29T16:39:37;11.20;70.40
10644;DHT22;5370;50.132;8.626;2022-12-29T16:42:32;11.20;70.60
10644;DHT22;5370;50.132;8.626;2022-12-29T16:47:35;11.10;71.10
10644;DHT22;5370;50.132;8.626;2022-12-29T16:50:11;11.00;71.20
10644;DHT22;5370;50.132;8.626;2022-12-29T16:52:38;11.00;71.40
10644;DHT22;5370;50.132;8.626;2022-12-29T16:55:04;11.00;71.60
10644;DHT22;5370;50.132;8.626;2022-12-29T16:57:32;10.90;71.70
10644;DHT22;5370;50.132;8.626;2022-12-29T17:00:07;10.90;71.80
10644;DHT22;5370;50.132;8.626;2022-12-29T17:02:42;10.90;72.10
10644;DHT22;5370;50.132;8.626;2022-12-29T17:05:14;10.90;72.10
10644;DHT22;5370;50.132;8.626;2022-12-29T17:07:40;10.80;72.10
10644;DHT22;5370;50.132;8.626;2022-12-29T17:10:06;10.80;72.10
10644;DHT22;5370;50.132;8.626;2022-12-29T17:12:33;10.80;72.20
10644;DHT22;5370;50.132;8.626;2022-12-29T17:15:02;10.70;72.20
10644;DHT22;5370;50.132;8.626;2022-12-29T17:17:31;10.70;72.40
10644;DHT22;5370;50.132;8.626;2022-12-29T17:20:02;10.70;72.50
10644;DHT22;5370;50.132;8.626;2022-12-29T17:22:28;10.70;72.80
10644;DHT22;5370;50.132;8.626;2022-12-29T17:24:58;10.70;73.10
10644;DHT22;5370;50.132;8.626;2022-12-29T17:27:30;10.70;73.40
10644;DHT22;5370;50.132;8.626;2022-12-29T17:30:08;10.80;73.20
10644;DHT22;5370;50.132;8.626;2022-12-29T17:32:35;10.80;72.90
10644;DHT22;5370;50.132;8.626;2022-12-29T17:35:00;10.80;72.70
10644;DHT22;5370;50.132;8.626;2022-12-29T17:37:35;10.80;72.50
10644;DHT22;5370;50.132;8.626;2022-12-29T17:40:02;10.80;72.40
10644;DHT22;5370;50.132;8.626;2022-12-29T17:42:28;10.80;72.30
10644;DHT22;5370;50.132;8.626;2022-12-29T17:44:57;10.80;72.20
10644;DHT22;5370;50.132;8.626;2022-12-29T17:47:23;10.80;72.20
10644;DHT22;5370;50.132;8.626;2022-12-29T17:49:48;10.70;72.00
10644;DHT22;5370;50.132;8.626;2022-12-29T17:52:15;10.70;72.10
10644;DHT22;5370;50.132;8.626;2022-12-29T17:54:45;10.70;72.10
10644;DHT22;5370;50.132;8.626;2022-12-29T17:57:15;10.70;71.90
10644;DHT22;5370;50.132;8.626;2022-12-29T17:59:41;10.70;71.90
10644;DHT22;5370;50.132;8.626;2022-12-29T18:02:28;10.70;71.90
10644;DHT22;5370;50.132;8.626;2022-12-29T18:04:54;10.70;72.20
10644;DHT22;5370;50.132;8.626;2022-12-29T18:07:20;10.70;72.20
10644;DHT22;5370;50.132;8.626;2022-12-29T18:09:45;10.70;72.20
10644;DHT22;5370;50.132;8.626;2022-12-29T18:12:38;10.70;72.20
10644;DHT22;5370;50.132;8.626;2022-12-29T18:15:06;10.70;72.20
10644;DHT22;5370;50.132;8.626;2022-12-29T18:17:32;10.70;72.20
10644;DHT22;5370;50.132;8.626;2022-12-29T18:19:58;10.70;72.30
10644;DHT22;5370;50.132;8.626;2022-12-29T18:22:24;10.70;72.40